Fasa, Iran
Current Conditions -  °F | °C
As of 11:50 AM on Sunday 26 Oct 2014 (Local Time) from OISF Reporting Station
Clear Clear  
Wind Chill: 77°   Ceiling: Unl
Heat Index: 77°   Visibility: 6mi
Dew Point: 27°   Wind: 0mph
Humidity: 16%   Direction: NA
Pressure: 30.06"   Gusts: NA
Location:  28.97°N, 53.68°E
Report Text: OISF 260750Z 00000KT CAVOK 25/M03 Q1018
Loading
Personal Weather Stations






























Interactive Weather Map
Tropical Storm Tracking
New forecast layout! Learn more

10-Day Weather Forecast

Advertisements
Track Severe Weather on mobile